Terminal Aerodrome Forecast
Issued by NWS Chicago, IL

Home | Current Version | Previous Version | Text Only | Print | Product List | Glossary Off
Versions: 1 2 3 4 5 6 7 8 9 10 11 12 13 14 15 16 17 18 19 20 21 22 23 24 25 26 27 28 29 30 31 32 33

000
FTUS43 KLOT 221700
TAFRFD
TAF
KRFD 221738Z 2218/2318 19011KT 1SM -DZ BR OVC003
     FM222100 22011KT 3SM -DZ BR OVC005
     FM230200 20012KT 4SM BR OVC004 WS020/21045KT
     FM230700 20013KT 3SM -RA BR OVC007
     FM231500 18014KT 2SM RA BR OVC005=

USA.gov is the U.S. government's official web portal to all federal, state and local government web resources and services.